createdAt,value
2023-01-09T00:02:40.993Z,15.90
2023-01-09T00:05:44.476Z,15.07
2023-01-09T00:08:48.054Z,14.87
2023-01-09T00:11:55.148Z,15.77
2023-01-09T00:14:58.299Z,14.30
2023-01-09T00:18:01.475Z,15.13
2023-01-09T00:21:07.836Z,16.40
2023-01-09T00:24:11.289Z,14.50
2023-01-09T00:27:16.152Z,14.37
2023-01-09T00:30:19.990Z,14.73
2023-01-09T00:33:26.707Z,15.47
2023-01-09T00:36:30.231Z,14.90
2023-01-09T00:39:34.325Z,15.87
2023-01-09T00:42:39.499Z,15.07
2023-01-09T00:45:42.999Z,13.93
2023-01-09T00:48:48.897Z,14.93
2023-01-09T00:51:53.214Z,14.00
2023-01-09T00:54:56.446Z,14.67
2023-01-09T00:58:01.256Z,13.40
2023-01-09T01:01:05.038Z,14.20
2023-01-09T01:04:22.322Z,14.13
2023-01-09T01:07:43.337Z,14.00
2023-01-09T01:10:47.938Z,13.67
2023-01-09T01:13:52.900Z,13.10
2023-01-09T01:16:55.986Z,13.23
2023-01-09T01:19:59.126Z,12.40
2023-01-09T01:23:02.924Z,14.07
2023-01-09T01:26:08.264Z,13.50
2023-01-09T01:29:12.927Z,13.03
2023-01-09T01:32:16.532Z,13.80
2023-01-09T01:35:20.196Z,13.27
2023-01-09T01:38:23.349Z,13.83
2023-01-09T01:41:30.636Z,13.93
2023-01-09T01:45:02.620Z,14.77
2023-01-09T01:48:09.058Z,14.40
2023-01-09T01:51:14.451Z,13.10
2023-01-09T01:54:27.784Z,13.20
2023-01-09T01:57:32.937Z,14.00
2023-01-09T02:00:43.457Z,13.80
2023-01-09T02:03:47.442Z,13.97
2023-01-09T02:06:54.377Z,14.80
2023-01-09T02:09:58.290Z,14.07
2023-01-09T02:13:03.278Z,14.63
2023-01-09T02:16:23.572Z,13.23
2023-01-09T02:19:54.349Z,15.03
2023-01-09T02:23:09.548Z,13.67
2023-01-09T02:26:36.449Z,14.93
2023-01-09T02:30:14.499Z,14.03
2023-01-09T02:33:43.389Z,14.27
2023-01-09T02:36:56.184Z,15.00
2023-01-09T02:40:06.025Z,14.90
2023-01-09T02:43:11.580Z,15.40
2023-01-09T02:46:21.519Z,15.50
2023-01-09T02:49:26.089Z,15.30
2023-01-09T02:52:40.442Z,14.67
2023-01-09T02:55:56.798Z,13.57
2023-01-09T02:59:22.996Z,13.87
2023-01-09T03:02:41.100Z,14.40
2023-01-09T03:05:53.324Z,13.50
2023-01-09T03:09:01.904Z,15.03
2023-01-09T03:12:10.852Z,14.37
2023-01-09T03:15:16.616Z,14.80
2023-01-09T03:18:23.990Z,14.07
2023-01-09T03:21:31.292Z,13.77
2023-01-09T03:24:34.658Z,14.33
2023-01-09T03:27:38.372Z,14.40
2023-01-09T03:30:41.441Z,13.80
2023-01-09T03:33:44.957Z,14.30
2023-01-09T03:36:49.713Z,14.23
2023-01-09T03:39:52.833Z,14.70
2023-01-09T03:42:56.423Z,13.63
2023-01-09T03:46:00.020Z,15.33
2023-01-09T03:49:04.105Z,15.33
2023-01-09T03:52:08.956Z,13.87
2023-01-09T03:55:14.817Z,14.27
2023-01-09T03:58:19.377Z,14.30
2023-01-09T04:01:23.553Z,13.77
2023-01-09T04:04:27.160Z,13.93
2023-01-09T04:07:32.084Z,14.00
2023-01-09T04:10:35.208Z,13.83
2023-01-09T04:13:38.635Z,13.93
2023-01-09T04:16:43.188Z,14.07
2023-01-09T04:19:46.724Z,14.33
2023-01-09T04:22:51.817Z,13.53
2023-01-09T04:25:55.980Z,14.07
2023-01-09T04:28:59.131Z,15.50
2023-01-09T04:32:02.299Z,21.33
2023-01-09T04:35:06.158Z,37.80
2023-01-09T04:38:11.325Z,49.20
2023-01-09T04:41:35.320Z,47.20
2023-01-09T04:44:38.894Z,40.30
2023-01-09T04:47:42.442Z,35.97
2023-01-09T04:50:45.925Z,34.07
2023-01-09T04:53:50.691Z,31.27
2023-01-09T04:56:53.920Z,28.20
2023-01-09T04:59:57.039Z,29.10
2023-01-09T05:03:00.244Z,26.27
2023-01-09T05:06:03.462Z,26.33
2023-01-09T05:09:08.305Z,25.43
2023-01-09T05:12:12.077Z,23.73
2023-01-09T05:15:15.244Z,23.07
2023-01-09T05:18:18.601Z,21.07
2023-01-09T05:21:21.832Z,20.37
2023-01-09T05:24:26.664Z,20.57
2023-01-09T05:27:30.545Z,19.13
2023-01-09T05:30:33.849Z,18.50
2023-01-09T05:33:37.259Z,19.10
2023-01-09T05:36:40.404Z,17.70
2023-01-09T05:39:45.227Z,19.43
2023-01-09T05:42:48.375Z,16.93
2023-01-09T05:45:51.942Z,18.20
2023-01-09T05:48:55.234Z,18.23
2023-01-09T05:51:58.756Z,18.20
2023-01-09T05:55:03.532Z,18.00
2023-01-09T05:58:06.672Z,18.27
2023-01-09T06:01:10.217Z,18.90
2023-01-09T06:04:13.321Z,18.10
2023-01-09T06:07:20.399Z,18.53
2023-01-09T06:10:27.904Z,19.63
2023-01-09T06:13:31.108Z,17.60
2023-01-09T06:16:34.800Z,17.70
2023-01-09T06:19:38.015Z,20.80
2023-01-09T06:22:41.564Z,19.70
2023-01-09T06:25:46.398Z,19.00
2023-01-09T06:28:49.393Z,20.23
2023-01-09T06:31:52.655Z,19.77
2023-01-09T06:34:57.644Z,21.70
2023-01-09T06:38:03.682Z,22.13
2023-01-09T06:41:08.291Z,21.40
2023-01-09T06:44:11.856Z,21.80
2023-01-09T06:47:15.052Z,19.60
2023-01-09T06:50:19.249Z,19.17
2023-01-09T06:53:22.692Z,19.73
2023-01-09T06:56:27.983Z,20.10
2023-01-09T06:59:33.893Z,19.30
2023-01-09T07:02:37.291Z,20.10
2023-01-09T07:05:46.470Z,19.73
2023-01-09T07:08:50.137Z,19.17
2023-01-09T07:11:54.751Z,18.87
2023-01-09T07:14:57.807Z,18.70
2023-01-09T07:18:02.736Z,18.77
2023-01-09T07:21:07.472Z,17.47
2023-01-09T07:24:10.576Z,18.67
2023-01-09T07:27:15.852Z,17.17
2023-01-09T07:30:19.384Z,17.77
2023-01-09T07:33:22.500Z,17.70
2023-01-09T07:36:25.819Z,18.57
2023-01-09T07:39:28.960Z,16.70
2023-01-09T07:42:34.255Z,17.23
2023-01-09T07:45:37.437Z,16.10
2023-01-09T07:48:40.497Z,16.70
2023-01-09T07:51:45.169Z,17.23
2023-01-09T07:54:48.318Z,16.30
2023-01-09T07:57:55.192Z,16.30
2023-01-09T08:00:58.397Z,16.97
2023-01-09T08:04:01.509Z,17.07
2023-01-09T08:07:04.571Z,17.23
2023-01-09T08:10:08.387Z,17.47
2023-01-09T08:13:12.834Z,17.93
2023-01-09T08:16:15.952Z,17.60
2023-01-09T08:19:19.139Z,17.90
2023-01-09T08:22:22.194Z,16.70
2023-01-09T08:25:25.336Z,17.77
2023-01-09T08:28:29.792Z,17.80
2023-01-09T08:31:32.935Z,17.57
2023-01-09T08:34:36.899Z,17.53
2023-01-09T08:37:39.937Z,16.80
2023-01-09T08:40:43.209Z,17.63
2023-01-09T08:44:05.152Z,18.47
2023-01-09T08:47:08.735Z,17.07
2023-01-09T08:50:13.425Z,18.33
2023-01-09T08:53:16.734Z,16.87
2023-01-09T08:56:19.820Z,17.40
2023-01-09T08:59:24.538Z,17.60
2023-01-09T09:02:27.661Z,17.27
2023-01-09T09:05:32.496Z,18.20
2023-01-09T09:08:35.764Z,16.03
2023-01-09T09:11:38.985Z,16.63
2023-01-09T09:15:01.169Z,17.10
2023-01-09T09:18:07.179Z,17.63
2023-01-09T09:21:11.637Z,16.77
2023-01-09T09:24:14.835Z,16.67
2023-01-09T09:27:18.002Z,17.03
2023-01-09T09:30:23.669Z,16.77
2023-01-09T09:33:27.093Z,16.60
2023-01-09T09:36:31.122Z,15.50
2023-01-09T09:39:34.747Z,16.97
2023-01-09T09:43:12.351Z,16.20
2023-01-09T09:46:27.898Z,16.23
2023-01-09T09:49:39.508Z,16.30
2023-01-09T09:52:49.218Z,16.10
2023-01-09T09:55:52.900Z,15.87
2023-01-09T09:59:01.200Z,15.97
2023-01-09T10:02:17.440Z,15.20
2023-01-09T10:05:26.340Z,15.67
2023-01-09T10:08:40.818Z,14.33
2023-01-09T10:11:48.623Z,13.80
2023-01-09T10:14:51.899Z,14.37
2023-01-09T10:18:09.382Z,14.40
2023-01-09T10:21:18.048Z,13.63
2023-01-09T10:24:35.817Z,13.80
2023-01-09T10:27:56.834Z,13.97
2023-01-09T10:31:06.003Z,13.97
2023-01-09T10:34:31.411Z,12.80
2023-01-09T10:37:38.655Z,13.17
2023-01-09T10:40:47.851Z,11.80
2023-01-09T10:43:56.764Z,12.53
2023-01-09T10:47:01.555Z,12.77
2023-01-09T10:50:19.269Z,12.60
2023-01-09T10:53:25.403Z,12.47
2023-01-09T10:56:31.027Z,12.40
2023-01-09T10:59:34.195Z,12.80
2023-01-09T11:02:37.500Z,12.80
2023-01-09T11:05:42.712Z,11.80
2023-01-09T11:08:50.763Z,11.47
2023-01-09T11:11:53.918Z,11.07
2023-01-09T11:14:57.322Z,10.70
2023-01-09T11:18:20.131Z,12.23
2023-01-09T11:21:33.298Z,10.73
2023-01-09T11:24:36.834Z,11.40
2023-01-09T11:27:41.739Z,11.07
2023-01-09T11:30:53.762Z,9.93
2023-01-09T11:33:57.444Z,11.27
2023-01-09T11:37:08.659Z,10.70
2023-01-09T11:40:20.164Z,10.20
2023-01-09T11:43:37.801Z,10.97
2023-01-09T11:46:44.576Z,10.43
2023-01-09T11:49:51.287Z,11.30
2023-01-09T11:53:15.289Z,10.70
2023-01-09T11:56:19.418Z,10.10
2023-01-09T11:59:26.324Z,10.37
2023-01-09T12:02:48.420Z,10.10
2023-01-09T12:06:01.795Z,10.27
2023-01-09T12:09:07.970Z,10.20
2023-01-09T12:12:22.526Z,9.63
2023-01-09T12:15:32.332Z,9.20
2023-01-09T12:18:53.083Z,9.03
2023-01-09T12:22:03.760Z,9.80
2023-01-09T12:25:21.529Z,9.47
2023-01-09T12:29:00.229Z,9.63
2023-01-09T12:32:20.640Z,8.90
2023-01-09T12:35:37.085Z,9.03
2023-01-09T12:38:47.597Z,9.80
2023-01-09T12:42:15.033Z,9.40
2023-01-09T12:45:43.997Z,9.43
2023-01-09T12:49:23.266Z,9.57
2023-01-09T12:52:32.790Z,9.10
2023-01-09T12:55:41.527Z,8.80
2023-01-09T12:58:50.708Z,9.00
2023-01-09T13:01:54.383Z,9.33
2023-01-09T13:05:01.348Z,9.13
2023-01-09T13:08:07.629Z,9.80
2023-01-09T13:11:20.488Z,9.00
2023-01-09T13:14:36.803Z,8.53
2023-01-09T13:17:44.034Z,8.30
2023-01-09T13:20:53.138Z,8.47
2023-01-09T13:24:02.950Z,8.97
2023-01-09T13:27:12.558Z,8.37
2023-01-09T13:30:30.596Z,8.27
2023-01-09T13:33:37.984Z,9.13
2023-01-09T13:36:48.636Z,8.53
2023-01-09T13:39:58.536Z,8.30
2023-01-09T13:43:04.515Z,8.77
2023-01-09T13:46:09.335Z,8.30
2023-01-09T13:49:34.576Z,8.50
2023-01-09T13:52:39.493Z,7.73
2023-01-09T13:56:06.659Z,7.27
2023-01-09T13:59:28.145Z,8.53
2023-01-09T14:02:57.772Z,7.70
2023-01-09T14:06:18.470Z,8.13
2023-01-09T14:09:24.107Z,8.20
2023-01-09T14:12:29.155Z,8.17
2023-01-09T14:15:37.868Z,7.40
2023-01-09T14:18:51.438Z,8.10
2023-01-09T14:21:57.499Z,7.80
2023-01-09T14:25:08.570Z,8.17
2023-01-09T14:28:23.009Z,7.80
2023-01-09T14:31:30.249Z,7.50
2023-01-09T14:34:38.706Z,7.30
2023-01-09T14:37:43.272Z,8.33
2023-01-09T14:40:52.268Z,7.77
2023-01-09T14:44:02.060Z,7.70
2023-01-09T14:47:13.841Z,7.43
2023-01-09T14:50:24.683Z,8.30
2023-01-09T14:53:32.109Z,7.80
2023-01-09T14:56:36.598Z,7.50
2023-01-09T14:59:41.842Z,7.10
2023-01-09T15:02:46.923Z,8.20
2023-01-09T15:05:53.090Z,7.57
2023-01-09T15:08:59.975Z,7.30
2023-01-09T15:12:07.079Z,7.90
2023-01-09T15:15:16.577Z,6.83
2023-01-09T15:18:24.697Z,7.43
2023-01-09T15:21:32.109Z,6.30
2023-01-09T15:24:36.416Z,7.50
2023-01-09T15:27:49.102Z,7.03
2023-01-09T15:30:57.594Z,6.70
2023-01-09T15:34:00.787Z,7.40
2023-01-09T15:37:05.769Z,7.10
2023-01-09T15:40:23.097Z,7.37
2023-01-09T15:43:28.368Z,6.70
2023-01-09T15:46:31.884Z,7.20
2023-01-09T15:49:37.580Z,7.63
2023-01-09T15:52:42.308Z,7.37
2023-01-09T15:55:46.592Z,7.23
2023-01-09T15:58:50.792Z,6.83
2023-01-09T16:02:21.941Z,6.77
2023-01-09T16:05:25.389Z,7.20
2023-01-09T16:08:35.580Z,7.97
2023-01-09T16:11:39.882Z,6.97
2023-01-09T16:14:46.596Z,6.70
2023-01-09T16:18:19.923Z,7.00
2023-01-09T16:21:33.398Z,8.07
2023-01-09T16:24:42.094Z,7.63
2023-01-09T16:27:45.493Z,6.30
2023-01-09T16:30:54.445Z,7.07
2023-01-09T16:34:06.642Z,6.57
2023-01-09T16:37:12.833Z,6.97
2023-01-09T16:40:25.579Z,7.17
2023-01-09T16:43:28.218Z,6.47
2023-01-09T16:46:31.321Z,8.00
2023-01-09T16:49:34.732Z,6.80
2023-01-09T16:52:38.487Z,7.03
2023-01-09T16:55:43.321Z,7.10
2023-01-09T16:58:46.552Z,7.13
2023-01-09T17:01:50.113Z,7.90
2023-01-09T17:04:55.293Z,7.40
2023-01-09T17:07:59.488Z,7.40
2023-01-09T17:11:05.653Z,7.30
2023-01-09T17:14:10.817Z,7.70
2023-01-09T17:17:14.546Z,7.17
2023-01-09T17:20:23.033Z,7.50
2023-01-09T17:23:26.968Z,7.23
2023-01-09T17:26:49.516Z,8.10
2023-01-09T17:29:52.737Z,7.90
2023-01-09T17:32:55.829Z,8.33
2023-01-09T17:35:59.314Z,7.90
2023-01-09T17:39:03.155Z,13.00
2023-01-09T17:42:07.729Z,7.87
2023-01-09T17:45:11.628Z,7.73
2023-01-09T17:48:20.034Z,9.33
2023-01-09T17:51:23.556Z,8.90
2023-01-09T17:54:26.942Z,9.23
2023-01-09T17:57:31.678Z,8.63
2023-01-09T18:00:36.958Z,8.43
2023-01-09T18:03:40.732Z,8.60
2023-01-09T18:06:44.286Z,8.80
2023-01-09T18:09:48.800Z,8.50
2023-01-09T18:12:54.134Z,8.93
2023-01-09T18:15:57.275Z,9.00
2023-01-09T18:19:00.447Z,9.97
2023-01-09T18:22:04.036Z,10.37
2023-01-09T18:25:09.051Z,10.83
2023-01-09T18:28:15.512Z,9.83
2023-01-09T18:31:22.813Z,10.23
2023-01-09T18:34:26.178Z,9.43
2023-01-09T18:37:29.456Z,10.13
2023-01-09T18:40:33.920Z,10.30
2023-01-09T18:43:38.887Z,9.87
2023-01-09T18:46:43.711Z,10.13
2023-01-09T18:49:46.780Z,9.80
2023-01-09T18:52:50.265Z,10.80
2023-01-09T18:55:53.391Z,10.67
2023-01-09T18:58:58.889Z,11.70
2023-01-09T19:02:02.365Z,11.93
2023-01-09T19:05:05.995Z,11.87
2023-01-09T19:08:09.121Z,11.00
2023-01-09T19:11:12.610Z,11.77
2023-01-09T19:14:17.758Z,11.17
2023-01-09T19:17:20.880Z,13.13
2023-01-09T19:20:24.339Z,14.37
2023-01-09T19:23:27.505Z,16.50
2023-01-09T19:26:32.156Z,18.60
2023-01-09T19:29:36.951Z,20.07
2023-01-09T19:32:41.059Z,21.20
2023-01-09T19:35:52.024Z,21.90
2023-01-09T19:38:58.861Z,21.10
2023-01-09T19:42:02.200Z,23.07
2023-01-09T19:45:09.041Z,22.47
2023-01-09T19:48:12.495Z,23.90
2023-01-09T19:51:18.627Z,23.90
2023-01-09T19:54:21.968Z,22.77
2023-01-09T19:57:25.688Z,25.53
2023-01-09T20:00:30.589Z,24.50
2023-01-09T20:03:34.996Z,26.40
2023-01-09T20:06:44.541Z,25.27
2023-01-09T20:09:49.358Z,28.30
2023-01-09T20:12:52.717Z,25.57
2023-01-09T20:15:59.452Z,25.07
2023-01-09T20:19:07.468Z,26.27
2023-01-09T20:22:10.993Z,25.97
2023-01-09T20:25:15.443Z,26.40
2023-01-09T20:28:19.794Z,27.83
2023-01-09T20:31:28.135Z,28.77
2023-01-09T20:34:31.560Z,26.63
2023-01-09T20:37:34.780Z,28.60
2023-01-09T20:40:38.835Z,29.23
2023-01-09T20:43:43.007Z,28.33
2023-01-09T20:46:49.519Z,28.07
2023-01-09T20:49:52.675Z,28.83
2023-01-09T20:52:56.238Z,26.87
2023-01-09T20:56:02.884Z,27.57
2023-01-09T20:59:07.102Z,28.10
2023-01-09T21:02:14.831Z,28.20
2023-01-09T21:05:18.973Z,29.03
2023-01-09T21:08:22.115Z,28.80
2023-01-09T21:11:26.263Z,30.00
2023-01-09T21:14:29.524Z,28.50
2023-01-09T21:17:36.452Z,28.30
2023-01-09T21:20:40.663Z,28.80
2023-01-09T21:23:47.584Z,27.90
2023-01-09T21:26:52.564Z,30.00
2023-01-09T21:29:57.275Z,30.00
2023-01-09T21:33:02.000Z,28.30
2023-01-09T21:36:06.159Z,30.20
2023-01-09T21:39:12.175Z,31.90
2023-01-09T21:42:32.583Z,30.43
2023-01-09T21:45:53.305Z,31.83
2023-01-09T21:48:59.689Z,30.73
2023-01-09T21:52:05.833Z,29.57
2023-01-09T21:55:10.967Z,29.90
2023-01-09T21:58:14.309Z,30.47
2023-01-09T22:01:17.804Z,29.53
2023-01-09T22:04:24.567Z,30.40
2023-01-09T22:07:27.892Z,30.10
2023-01-09T22:10:31.335Z,28.43
2023-01-09T22:13:34.492Z,30.23
2023-01-09T22:16:37.934Z,29.60
2023-01-09T22:19:45.146Z,27.80
2023-01-09T22:22:49.505Z,29.37
2023-01-09T22:25:53.388Z,29.27
2023-01-09T22:28:57.614Z,27.83
2023-01-09T22:32:00.714Z,28.27
2023-01-09T22:35:06.652Z,26.70
2023-01-09T22:38:10.727Z,26.60
2023-01-09T22:41:14.480Z,26.93
2023-01-09T22:44:17.605Z,24.73
2023-01-09T22:47:20.779Z,25.33
2023-01-09T22:50:25.821Z,26.47
2023-01-09T22:53:29.413Z,24.20
2023-01-09T22:56:33.149Z,24.70
2023-01-09T22:59:36.611Z,22.97
2023-01-09T23:02:40.425Z,24.23
2023-01-09T23:05:45.056Z,23.80
2023-01-09T23:08:50.786Z,21.57
2023-01-09T23:12:06.315Z,23.20
2023-01-09T23:15:10.330Z,23.27
2023-01-09T23:18:13.555Z,21.17
2023-01-09T23:21:18.255Z,21.33
2023-01-09T23:24:21.692Z,21.70
2023-01-09T23:27:27.964Z,21.97
2023-01-09T23:30:31.366Z,21.27
2023-01-09T23:33:36.699Z,21.97
2023-01-09T23:36:41.626Z,19.03
2023-01-09T23:39:44.774Z,19.87
2023-01-09T23:43:14.014Z,19.67
2023-01-09T23:46:17.211Z,20.10
2023-01-09T23:49:21.233Z,20.60
2023-01-09T23:52:25.735Z,18.30
2023-01-09T23:55:29.432Z,18.87
2023-01-09T23:58:32.835Z,18.50
